Hemavan Gierevarto, Sweden

8:37 PM CEST on September 18, 2014 (GMT +0200)
Hemavan | Change Station
CLOSE
Current Station
Personal Weather Station
Location: Hemavan, HEMAVAN
Elevation: 1617 ft
Nearby Weather Stations

Elev 1617 ft 65.81 °N, 15.11 °E | Updated 2 minutes ago

Clear
Clear
46.4 °F
Feels Like 46 °F
N
1.0
Wind Variable Wind from East
Gusts 2.0 mph

Today
High -- | Low -- °F
--% Chance of Precip.
Yesterday
High -- | Low -- °F
Precip. -- in
6:28 AM 7:17 PM
Waning Crescent, 25% visible
Pressure 30.09 in
Visibility 6.2 miles
Clouds
Windchill 46 °F
Dew Point 42 °F
Humidity 84%
Rainfall 0.00 in
Snow Depth Not available.
UV 0.0 out of 12
Pollen Not available.
Air Quality Not available.
Flu Activity Not available.
METAR ESUT 181820Z AUTO 00000KT 9999 NCD 06/05 Q1019

More Conditions Fewer Conditions

Pressure 30.09 in
Visibility 6.2 miles
Clouds
Windchill 46 °F
Dew Point 42 °F
Humidity 84%
Rainfall 0.00 in
Snow Depth Not available.
UV 0.0 out of 12
Pollen Not available.
Air Quality Not available.
Flu Activity Not available.
METAR ESUT 181820Z AUTO 00000KT 9999 NCD 06/05 Q1019

More Conditions Fewer Conditions

10-Day Weather Forecast

Almanac

Astronomy

Sep. 18, 2014 Rise Set
Actual Time 6:28 AM CEST 7:17 PM CEST
Civil Twilight 5:37 AM CEST 8:08 PM CEST
Nautical Twilight 4:31 AM CEST 9:13 PM CEST
Astronomical Twilight 3:09 AM CEST 10:33 PM CEST
Moon No Moon Rise 5:29 PM CEST
Length of Visible Light 14h 31m
Length of Day
12h 48m
Tomorrow will be 6m 56s shorter.
Waning Crescent, 25% of the Moon is Illuminated
Today
Waning Crescent
Sep 24
New
Oct 1
First Quarter
Oct 8
Full
Oct 15
Last Quarter

Today's Extremes

Country Highs Country Lows

Community

WunderPhotos

Upload Photos

1,754,417 photos uploaded!

WunderBlogs® & News

Nearby

Snow Depth

Not available.

Earthquake Activity

City Distance Mag. Time & Date
No recent earthquake activity has been reported nearby.
Minimum magnitude displayed is 2.5.

Coastal Water Temperatures

Place Temperature
No Stations Reporting

Nearby Weather Stations